sensor_id;sensor_type;location;lat;lon;timestamp;pressure;altitude;pressure_sealevel;temperature
12918;BMP180;6526;54.312;13.092;2024-02-21T00:02:24;102054.00;;;14.70
12918;BMP180;6526;54.312;13.092;2024-02-21T00:04:50;102046.00;;;14.90
12918;BMP180;6526;54.312;13.092;2024-02-21T00:07:16;102047.00;;;14.90
12918;BMP180;6526;54.312;13.092;2024-02-21T00:09:42;102044.00;;;14.90
12918;BMP180;6526;54.312;13.092;2024-02-21T00:12:09;102054.00;;;14.90
12918;BMP180;6526;54.312;13.092;2024-02-21T00:14:35;102030.00;;;14.80
12918;BMP180;6526;54.312;13.092;2024-02-21T00:17:01;102035.00;;;14.80
12918;BMP180;6526;54.312;13.092;2024-02-21T00:19:27;102025.00;;;14.80
12918;BMP180;6526;54.312;13.092;2024-02-21T00:21:53;102015.00;;;14.80
12918;BMP180;6526;54.312;13.092;2024-02-21T00:24:19;102016.00;;;14.80
12918;BMP180;6526;54.312;13.092;2024-02-21T00:26:45;102005.00;;;14.80
12918;BMP180;6526;54.312;13.092;2024-02-21T00:29:11;102001.00;;;14.70
12918;BMP180;6526;54.312;13.092;2024-02-21T00:31:37;102014.00;;;14.80
12918;BMP180;6526;54.312;13.092;2024-02-21T00:34:03;102000.00;;;14.70
12918;BMP180;6526;54.312;13.092;2024-02-21T00:36:29;101992.00;;;14.70
12918;BMP180;6526;54.312;13.092;2024-02-21T00:38:54;101988.00;;;14.60
12918;BMP180;6526;54.312;13.092;2024-02-21T00:41:20;101985.00;;;14.60
12918;BMP180;6526;54.312;13.092;2024-02-21T00:43:46;101981.00;;;14.60
12918;BMP180;6526;54.312;13.092;2024-02-21T00:46:14;101967.00;;;14.70
12918;BMP180;6526;54.312;13.092;2024-02-21T00:48:40;101966.00;;;14.70
12918;BMP180;6526;54.312;13.092;2024-02-21T00:51:06;101965.00;;;14.70
12918;BMP180;6526;54.312;13.092;2024-02-21T00:53:32;101965.00;;;14.60
12918;BMP180;6526;54.312;13.092;2024-02-21T00:55:58;101950.00;;;14.60
12918;BMP180;6526;54.312;13.092;2024-02-21T00:58:24;101954.00;;;14.70
12918;BMP180;6526;54.312;13.092;2024-02-21T01:00:50;101947.00;;;14.70
12918;BMP180;6526;54.312;13.092;2024-02-21T01:03:16;101939.00;;;14.70
12918;BMP180;6526;54.312;13.092;2024-02-21T01:05:42;101944.00;;;14.60
12918;BMP180;6526;54.312;13.092;2024-02-21T01:08:08;101940.00;;;14.60
12918;BMP180;6526;54.312;13.092;2024-02-21T01:10:34;101943.00;;;14.70
12918;BMP180;6526;54.312;13.092;2024-02-21T01:13:00;101935.00;;;14.60
12918;BMP180;6526;54.312;13.092;2024-02-21T01:15:26;101941.00;;;14.50
12918;BMP180;6526;54.312;13.092;2024-02-21T01:17:52;101922.00;;;14.50
12918;BMP180;6526;54.312;13.092;2024-02-21T01:20:21;101920.00;;;14.50
12918;BMP180;6526;54.312;13.092;2024-02-21T01:22:47;101911.00;;;14.50
12918;BMP180;6526;54.312;13.092;2024-02-21T01:25:13;101905.00;;;14.50
12918;BMP180;6526;54.312;13.092;2024-02-21T01:27:39;101904.00;;;14.50
12918;BMP180;6526;54.312;13.092;2024-02-21T01:30:06;101907.00;;;14.50
12918;BMP180;6526;54.312;13.092;2024-02-21T01:32:32;101889.00;;;14.50
12918;BMP180;6526;54.312;13.092;2024-02-21T01:34:58;101889.00;;;14.50
12918;BMP180;6526;54.312;13.092;2024-02-21T01:37:24;101882.00;;;14.50
12918;BMP180;6526;54.312;13.092;2024-02-21T01:39:50;101880.00;;;14.40
12918;BMP180;6526;54.312;13.092;2024-02-21T01:42:16;101873.00;;;14.50
12918;BMP180;6526;54.312;13.092;2024-02-21T01:44:42;101880.00;;;14.50
12918;BMP180;6526;54.312;13.092;2024-02-21T01:47:10;101876.00;;;14.40
12918;BMP180;6526;54.312;13.092;2024-02-21T01:49:42;101869.00;;;14.40
12918;BMP180;6526;54.312;13.092;2024-02-21T01:52:09;101870.00;;;14.40
12918;BMP180;6526;54.312;13.092;2024-02-21T01:54:38;101859.00;;;14.40
12918;BMP180;6526;54.312;13.092;2024-02-21T01:57:04;101855.00;;;14.40
12918;BMP180;6526;54.312;13.092;2024-02-21T01:59:31;101850.00;;;14.50
12918;BMP180;6526;54.312;13.092;2024-02-21T02:01:57;101841.00;;;14.40
12918;BMP180;6526;54.312;13.092;2024-02-21T02:04:24;101839.00;;;14.50
12918;BMP180;6526;54.312;13.092;2024-02-21T02:06:51;101835.00;;;14.50
12918;BMP180;6526;54.312;13.092;2024-02-21T02:09:18;101830.00;;;14.40
12918;BMP180;6526;54.312;13.092;2024-02-21T02:11:44;101823.00;;;14.50
12918;BMP180;6526;54.312;13.092;2024-02-21T02:14:10;101817.00;;;14.50
12918;BMP180;6526;54.312;13.092;2024-02-21T02:16:36;101804.00;;;14.50
12918;BMP180;6526;54.312;13.092;2024-02-21T02:19:02;101795.00;;;14.50
12918;BMP180;6526;54.312;13.092;2024-02-21T02:21:39;101786.00;;;14.40
12918;BMP180;6526;54.312;13.092;2024-02-21T02:24:06;101780.00;;;14.50
12918;BMP180;6526;54.312;13.092;2024-02-21T02:26:32;101785.00;;;14.50
12918;BMP180;6526;54.312;13.092;2024-02-21T02:28:58;101779.00;;;14.50
12918;BMP180;6526;54.312;13.092;2024-02-21T02:31:24;101770.00;;;14.40
12918;BMP180;6526;54.312;13.092;2024-02-21T02:33:50;101760.00;;;14.50
12918;BMP180;6526;54.312;13.092;2024-02-21T02:36:16;101771.00;;;14.50
12918;BMP180;6526;54.312;13.092;2024-02-21T02:38:43;101764.00;;;14.50
12918;BMP180;6526;54.312;13.092;2024-02-21T02:41:09;101760.00;;;14.50
12918;BMP180;6526;54.312;13.092;2024-02-21T02:43:35;101753.00;;;14.60
12918;BMP180;6526;54.312;13.092;2024-02-21T02:46:02;101747.00;;;14.60
12918;BMP180;6526;54.312;13.092;2024-02-21T02:48:29;101740.00;;;14.60
12918;BMP180;6526;54.312;13.092;2024-02-21T02:50:55;101734.00;;;14.60
12918;BMP180;6526;54.312;13.092;2024-02-21T02:53:21;101732.00;;;14.70
12918;BMP180;6526;54.312;13.092;2024-02-21T02:55:47;101720.00;;;14.60
12918;BMP180;6526;54.312;13.092;2024-02-21T02:58:13;101719.00;;;14.60
12918;BMP180;6526;54.312;13.092;2024-02-21T03:00:39;101720.00;;;14.60
12918;BMP180;6526;54.312;13.092;2024-02-21T03:03:05;101706.00;;;14.70
12918;BMP180;6526;54.312;13.092;2024-02-21T03:05:31;101710.00;;;14.60
12918;BMP180;6526;54.312;13.092;2024-02-21T03:07:57;101707.00;;;14.70
12918;BMP180;6526;54.312;13.092;2024-02-21T03:10:24;101682.00;;;14.70
12918;BMP180;6526;54.312;13.092;2024-02-21T03:12:50;101691.00;;;14.70
12918;BMP180;6526;54.312;13.092;2024-02-21T03:15:18;101686.00;;;14.70
12918;BMP180;6526;54.312;13.092;2024-02-21T03:17:44;101682.00;;;14.70
12918;BMP180;6526;54.312;13.092;2024-02-21T03:20:11;101677.00;;;14.70
12918;BMP180;6526;54.312;13.092;2024-02-21T03:22:37;101664.00;;;14.70
12918;BMP180;6526;54.312;13.092;2024-02-21T03:25:04;101676.00;;;14.70
12918;BMP180;6526;54.312;13.092;2024-02-21T03:27:30;101669.00;;;14.60
12918;BMP180;6526;54.312;13.092;2024-02-21T03:29:56;101669.00;;;14.70
12918;BMP180;6526;54.312;13.092;2024-02-21T03:32:22;101657.00;;;14.70
12918;BMP180;6526;54.312;13.092;2024-02-21T03:34:48;101654.00;;;14.70
12918;BMP180;6526;54.312;13.092;2024-02-21T03:37:14;101650.00;;;14.70
12918;BMP180;6526;54.312;13.092;2024-02-21T03:39:41;101642.00;;;14.70
12918;BMP180;6526;54.312;13.092;2024-02-21T03:42:07;101641.00;;;14.70
12918;BMP180;6526;54.312;13.092;2024-02-21T03:44:33;101638.00;;;14.70
12918;BMP180;6526;54.312;13.092;2024-02-21T03:47:00;101625.00;;;14.70
12918;BMP180;6526;54.312;13.092;2024-02-21T03:49:26;101631.00;;;14.60
12918;BMP180;6526;54.312;13.092;2024-02-21T03:51:52;101634.00;;;14.70
12918;BMP180;6526;54.312;13.092;2024-02-21T03:54:19;101640.00;;;14.60
12918;BMP180;6526;54.312;13.092;2024-02-21T03:56:45;101636.00;;;14.60
12918;BMP180;6526;54.312;13.092;2024-02-21T03:59:13;101631.00;;;14.60
12918;BMP180;6526;54.312;13.092;2024-02-21T04:01:39;101630.00;;;14.60
12918;BMP180;6526;54.312;13.092;2024-02-21T04:04:05;101630.00;;;14.70
12918;BMP180;6526;54.312;13.092;2024-02-21T04:06:31;101616.00;;;14.70
12918;BMP180;6526;54.312;13.092;2024-02-21T04:08:57;101631.00;;;14.60
12918;BMP180;6526;54.312;13.092;2024-02-21T04:11:23;101604.00;;;14.70
12918;BMP180;6526;54.312;13.092;2024-02-21T04:13:50;101606.00;;;14.70
12918;BMP180;6526;54.312;13.092;2024-02-21T04:16:17;101606.00;;;14.70
12918;BMP180;6526;54.312;13.092;2024-02-21T04:18:44;101617.00;;;14.80
12918;BMP180;6526;54.312;13.092;2024-02-21T04:21:10;101613.00;;;14.70
12918;BMP180;6526;54.312;13.092;2024-02-21T04:23:36;101602.00;;;14.80
12918;BMP180;6526;54.312;13.092;2024-02-21T04:26:02;101612.00;;;14.80
12918;BMP180;6526;54.312;13.092;2024-02-21T04:28:28;101622.00;;;14.80
12918;BMP180;6526;54.312;13.092;2024-02-21T04:30:54;101609.00;;;14.80
12918;BMP180;6526;54.312;13.092;2024-02-21T04:33:20;101615.00;;;14.70
12918;BMP180;6526;54.312;13.092;2024-02-21T04:35:46;101601.00;;;14.70
12918;BMP180;6526;54.312;13.092;2024-02-21T04:38:13;101605.00;;;14.70
12918;BMP180;6526;54.312;13.092;2024-02-21T04:40:40;101601.00;;;14.70
12918;BMP180;6526;54.312;13.092;2024-02-21T04:43:06;101601.00;;;14.80
12918;BMP180;6526;54.312;13.092;2024-02-21T04:45:32;101601.00;;;14.70
12918;BMP180;6526;54.312;13.092;2024-02-21T04:47:58;101603.00;;;14.70
12918;BMP180;6526;54.312;13.092;2024-02-21T04:50:24;101605.00;;;14.70
12918;BMP180;6526;54.312;13.092;2024-02-21T04:52:50;101585.00;;;14.70
12918;BMP180;6526;54.312;13.092;2024-02-21T04:55:16;101584.00;;;14.70
12918;BMP180;6526;54.312;13.092;2024-02-21T04:57:42;101578.00;;;14.80
12918;BMP180;6526;54.312;13.092;2024-02-21T05:00:08;101586.00;;;14.80
12918;BMP180;6526;54.312;13.092;2024-02-21T05:02:35;101585.00;;;14.80
12918;BMP180;6526;54.312;13.092;2024-02-21T05:05:01;101584.00;;;14.70
12918;BMP180;6526;54.312;13.092;2024-02-21T05:07:28;101584.00;;;14.80
12918;BMP180;6526;54.312;13.092;2024-02-21T05:09:54;101583.00;;;14.80
12918;BMP180;6526;54.312;13.092;2024-02-21T05:12:20;101581.00;;;14.70
12918;BMP180;6526;54.312;13.092;2024-02-21T05:14:47;101579.00;;;14.80
12918;BMP180;6526;54.312;13.092;2024-02-21T05:17:13;101585.00;;;14.70
12918;BMP180;6526;54.312;13.092;2024-02-21T05:19:39;101577.00;;;14.80
12918;BMP180;6526;54.312;13.092;2024-02-21T05:22:05;101572.00;;;14.80
12918;BMP180;6526;54.312;13.092;2024-02-21T05:24:31;101574.00;;;14.80
12918;BMP180;6526;54.312;13.092;2024-02-21T05:26:57;101566.00;;;14.80
12918;BMP180;6526;54.312;13.092;2024-02-21T05:29:23;101568.00;;;14.80
12918;BMP180;6526;54.312;13.092;2024-02-21T05:34:19;101562.00;;;14.80
12918;BMP180;6526;54.312;13.092;2024-02-21T05:36:45;101564.00;;;14.80
12918;BMP180;6526;54.312;13.092;2024-02-21T05:39:12;101564.00;;;14.90
12918;BMP180;6526;54.312;13.092;2024-02-21T05:41:38;101565.00;;;14.90
12918;BMP180;6526;54.312;13.092;2024-02-21T05:44:04;101562.00;;;14.90
12918;BMP180;6526;54.312;13.092;2024-02-21T05:46:30;101560.00;;;15.00
12918;BMP180;6526;54.312;13.092;2024-02-21T05:48:56;101566.00;;;15.00
12918;BMP180;6526;54.312;13.092;2024-02-21T05:51:22;101564.00;;;15.10
12918;BMP180;6526;54.312;13.092;2024-02-21T05:53:48;101571.00;;;15.00
12918;BMP180;6526;54.312;13.092;2024-02-21T05:56:14;101582.00;;;15.00
12918;BMP180;6526;54.312;13.092;2024-02-21T05:58:41;101574.00;;;15.00
12918;BMP180;6526;54.312;13.092;2024-02-21T06:01:07;101573.00;;;15.00
12918;BMP180;6526;54.312;13.092;2024-02-21T06:03:34;101583.00;;;15.00
12918;BMP180;6526;54.312;13.092;2024-02-21T06:06:00;101584.00;;;15.10
12918;BMP180;6526;54.312;13.092;2024-02-21T06:08:26;101590.00;;;15.10
12918;BMP180;6526;54.312;13.092;2024-02-21T06:10:52;101575.00;;;15.10
12918;BMP180;6526;54.312;13.092;2024-02-21T06:13:23;101578.00;;;15.00
12918;BMP180;6526;54.312;13.092;2024-02-21T06:15:49;101575.00;;;15.00
12918;BMP180;6526;54.312;13.092;2024-02-21T06:18:19;101589.00;;;15.10
12918;BMP180;6526;54.312;13.092;2024-02-21T06:20:45;101594.00;;;14.90
12918;BMP180;6526;54.312;13.092;2024-02-21T06:23:12;101591.00;;;14.90
12918;BMP180;6526;54.312;13.092;2024-02-21T06:25:38;101582.00;;;14.90
12918;BMP180;6526;54.312;13.092;2024-02-21T06:28:05;101580.00;;;14.80
12918;BMP180;6526;54.312;13.092;2024-02-21T06:30:31;101585.00;;;14.80
12918;BMP180;6526;54.312;13.092;2024-02-21T06:32:57;101592.00;;;14.80
12918;BMP180;6526;54.312;13.092;2024-02-21T06:35:25;101596.00;;;14.80
12918;BMP180;6526;54.312;13.092;2024-02-21T06:37:51;101585.00;;;14.80
12918;BMP180;6526;54.312;13.092;2024-02-21T06:40:20;101587.00;;;14.70
12918;BMP180;6526;54.312;13.092;2024-02-21T06:42:47;101586.00;;;14.70
12918;BMP180;6526;54.312;13.092;2024-02-21T06:45:13;101577.00;;;14.80
12918;BMP180;6526;54.312;13.092;2024-02-21T06:47:39;101573.00;;;14.70
12918;BMP180;6526;54.312;13.092;2024-02-21T06:50:05;101564.00;;;14.70
12918;BMP180;6526;54.312;13.092;2024-02-21T06:52:31;101556.00;;;14.70
12918;BMP180;6526;54.312;13.092;2024-02-21T06:54:57;101561.00;;;14.80
12918;BMP180;6526;54.312;13.092;2024-02-21T06:57:24;101542.00;;;14.80
12918;BMP180;6526;54.312;13.092;2024-02-21T06:59:50;101528.00;;;14.70
12918;BMP180;6526;54.312;13.092;2024-02-21T07:02:16;101522.00;;;14.90
12918;BMP180;6526;54.312;13.092;2024-02-21T07:04:42;101518.00;;;14.90
12918;BMP180;6526;54.312;13.092;2024-02-21T07:07:09;101513.00;;;15.00
12918;BMP180;6526;54.312;13.092;2024-02-21T07:09:35;101510.00;;;14.90
12918;BMP180;6526;54.312;13.092;2024-02-21T07:12:02;101513.00;;;14.80
12918;BMP180;6526;54.312;13.092;2024-02-21T07:14:29;101519.00;;;14.80
12918;BMP180;6526;54.312;13.092;2024-02-21T07:16:55;101547.00;;;14.80
12918;BMP180;6526;54.312;13.092;2024-02-21T07:19:22;101550.00;;;14.80
12918;BMP180;6526;54.312;13.092;2024-02-21T07:21:49;101569.00;;;14.80
12918;BMP180;6526;54.312;13.092;2024-02-21T07:24:15;101564.00;;;14.80
12918;BMP180;6526;54.312;13.092;2024-02-21T07:26:44;101553.00;;;14.70
12918;BMP180;6526;54.312;13.092;2024-02-21T07:29:10;101548.00;;;14.80
12918;BMP180;6526;54.312;13.092;2024-02-21T07:31:43;101555.00;;;14.80
12918;BMP180;6526;54.312;13.092;2024-02-21T07:34:09;101562.00;;;14.80
12918;BMP180;6526;54.312;13.092;2024-02-21T07:36:35;101558.00;;;14.80
12918;BMP180;6526;54.312;13.092;2024-02-21T07:39:01;101552.00;;;14.80
12918;BMP180;6526;54.312;13.092;2024-02-21T07:41:27;101569.00;;;14.80
12918;BMP180;6526;54.312;13.092;2024-02-21T07:43:56;101558.00;;;14.70
12918;BMP180;6526;54.312;13.092;2024-02-21T07:46:22;101560.00;;;14.70
12918;BMP180;6526;54.312;13.092;2024-02-21T07:48:48;101558.00;;;14.70
12918;BMP180;6526;54.312;13.092;2024-02-21T07:51:14;101547.00;;;14.80
12918;BMP180;6526;54.312;13.092;2024-02-21T07:53:43;101552.00;;;14.80
12918;BMP180;6526;54.312;13.092;2024-02-21T07:56:11;101549.00;;;14.80
12918;BMP180;6526;54.312;13.092;2024-02-21T07:58:37;101546.00;;;14.90
12918;BMP180;6526;54.312;13.092;2024-02-21T08:01:04;101550.00;;;14.90
12918;BMP180;6526;54.312;13.092;2024-02-21T08:03:30;101543.00;;;15.00
12918;BMP180;6526;54.312;13.092;2024-02-21T08:05:56;101548.00;;;15.30
12918;BMP180;6526;54.312;13.092;2024-02-21T08:08:22;101545.00;;;15.50
12918;BMP180;6526;54.312;13.092;2024-02-21T08:10:49;101541.00;;;15.60
12918;BMP180;6526;54.312;13.092;2024-02-21T08:13:15;101543.00;;;15.60
12918;BMP180;6526;54.312;13.092;2024-02-21T08:15:41;101539.00;;;15.80
12918;BMP180;6526;54.312;13.092;2024-02-21T08:18:08;101549.00;;;15.90
12918;BMP180;6526;54.312;13.092;2024-02-21T08:20:34;101532.00;;;15.90
12918;BMP180;6526;54.312;13.092;2024-02-21T08:23:01;101537.00;;;15.90
12918;BMP180;6526;54.312;13.092;2024-02-21T08:25:27;101536.00;;;16.00
12918;BMP180;6526;54.312;13.092;2024-02-21T08:27:58;101541.00;;;16.00
12918;BMP180;6526;54.312;13.092;2024-02-21T08:30:24;101531.00;;;16.20
12918;BMP180;6526;54.312;13.092;2024-02-21T08:32:50;101531.00;;;16.30
12918;BMP180;6526;54.312;13.092;2024-02-21T08:35:16;101538.00;;;16.40
12918;BMP180;6526;54.312;13.092;2024-02-21T08:37:47;101536.00;;;16.30
12918;BMP180;6526;54.312;13.092;2024-02-21T08:40:14;101534.00;;;16.20
12918;BMP180;6526;54.312;13.092;2024-02-21T08:42:43;101533.00;;;16.20
12918;BMP180;6526;54.312;13.092;2024-02-21T08:45:10;101528.00;;;16.30
12918;BMP180;6526;54.312;13.092;2024-02-21T08:47:36;101530.00;;;16.40
12918;BMP180;6526;54.312;13.092;2024-02-21T08:50:05;101532.00;;;16.60
12918;BMP180;6526;54.312;13.092;2024-02-21T08:52:31;101530.00;;;16.60
12918;BMP180;6526;54.312;13.092;2024-02-21T08:54:58;101533.00;;;16.50
12918;BMP180;6526;54.312;13.092;2024-02-21T08:57:24;101544.00;;;16.50
12918;BMP180;6526;54.312;13.092;2024-02-21T08:59:50;101546.00;;;16.60
12918;BMP180;6526;54.312;13.092;2024-02-21T09:02:16;101537.00;;;16.60
12918;BMP180;6526;54.312;13.092;2024-02-21T09:04:42;101541.00;;;16.60
12918;BMP180;6526;54.312;13.092;2024-02-21T09:07:10;101542.00;;;16.70
12918;BMP180;6526;54.312;13.092;2024-02-21T09:09:36;101530.00;;;16.70
12918;BMP180;6526;54.312;13.092;2024-02-21T09:12:05;101524.00;;;16.80
12918;BMP180;6526;54.312;13.092;2024-02-21T09:14:37;101530.00;;;16.80
12918;BMP180;6526;54.312;13.092;2024-02-21T09:17:04;101535.00;;;16.80
12918;BMP180;6526;54.312;13.092;2024-02-21T09:19:30;101533.00;;;16.90
12918;BMP180;6526;54.312;13.092;2024-02-21T09:21:56;101515.00;;;16.80
12918;BMP180;6526;54.312;13.092;2024-02-21T09:24:22;101549.00;;;16.80
12918;BMP180;6526;54.312;13.092;2024-02-21T09:26:48;101539.00;;;16.80
12918;BMP180;6526;54.312;13.092;2024-02-21T09:29:15;101542.00;;;16.60
12918;BMP180;6526;54.312;13.092;2024-02-21T09:31:42;101534.00;;;16.60
12918;BMP180;6526;54.312;13.092;2024-02-21T09:34:08;101550.00;;;16.60
12918;BMP180;6526;54.312;13.092;2024-02-21T09:36:34;101552.00;;;16.60
12918;BMP180;6526;54.312;13.092;2024-02-21T09:39:00;101553.00;;;16.60
12918;BMP180;6526;54.312;13.092;2024-02-21T09:41:27;101568.00;;;16.70
12918;BMP180;6526;54.312;13.092;2024-02-21T09:43:56;101557.00;;;16.80
12918;BMP180;6526;54.312;13.092;2024-02-21T09:46:49;101565.00;;;16.80
12918;BMP180;6526;54.312;13.092;2024-02-21T09:49:31;101567.00;;;16.70
12918;BMP180;6526;54.312;13.092;2024-02-21T09:52:01;101569.00;;;16.70
12918;BMP180;6526;54.312;13.092;2024-02-21T09:54:30;101550.00;;;16.80
12918;BMP180;6526;54.312;13.092;2024-02-21T09:57:03;101554.00;;;16.60
12918;BMP180;6526;54.312;13.092;2024-02-21T09:59:31;101551.00;;;16.70
12918;BMP180;6526;54.312;13.092;2024-02-21T10:01:57;101556.00;;;16.80
12918;BMP180;6526;54.312;13.092;2024-02-21T10:04:26;101563.00;;;16.80
12918;BMP180;6526;54.312;13.092;2024-02-21T10:06:53;101559.00;;;16.60
12918;BMP180;6526;54.312;13.092;2024-02-21T10:09:27;101552.00;;;16.80
12918;BMP180;6526;54.312;13.092;2024-02-21T10:11:54;101556.00;;;16.90
12918;BMP180;6526;54.312;13.092;2024-02-21T10:14:20;101567.00;;;16.90
12918;BMP180;6526;54.312;13.092;2024-02-21T10:16:48;101558.00;;;16.70
12918;BMP180;6526;54.312;13.092;2024-02-21T10:19:20;101552.00;;;16.70
12918;BMP180;6526;54.312;13.092;2024-02-21T10:22:03;101552.00;;;16.60
12918;BMP180;6526;54.312;13.092;2024-02-21T10:24:30;101566.00;;;16.60
12918;BMP180;6526;54.312;13.092;2024-02-21T10:27:07;101561.00;;;16.60
12918;BMP180;6526;54.312;13.092;2024-02-21T10:29:35;101552.00;;;16.60
12918;BMP180;6526;54.312;13.092;2024-02-21T10:32:27;101554.00;;;16.50
12918;BMP180;6526;54.312;13.092;2024-02-21T10:35:02;101555.00;;;16.60
12918;BMP180;6526;54.312;13.092;2024-02-21T10:37:30;101557.00;;;16.60
12918;BMP180;6526;54.312;13.092;2024-02-21T10:39:57;101558.00;;;16.80
12918;BMP180;6526;54.312;13.092;2024-02-21T10:42:29;101550.00;;;16.90
12918;BMP180;6526;54.312;13.092;2024-02-21T10:45:01;101561.00;;;17.20
12918;BMP180;6526;54.312;13.092;2024-02-21T10:47:30;101557.00;;;17.20
12918;BMP180;6526;54.312;13.092;2024-02-21T10:50:03;101555.00;;;17.30
12918;BMP180;6526;54.312;13.092;2024-02-21T10:52:47;101549.00;;;17.20
12918;BMP180;6526;54.312;13.092;2024-02-21T10:55:20;101547.00;;;17.20
12918;BMP180;6526;54.312;13.092;2024-02-21T10:57:49;101561.00;;;17.30
12918;BMP180;6526;54.312;13.092;2024-02-21T11:00:18;101551.00;;;17.30
12918;BMP180;6526;54.312;13.092;2024-02-21T11:02:46;101547.00;;;17.40
12918;BMP180;6526;54.312;13.092;2024-02-21T11:05:13;101529.00;;;17.50
12918;BMP180;6526;54.312;13.092;2024-02-21T11:07:39;101529.00;;;17.40
12918;BMP180;6526;54.312;13.092;2024-02-21T11:10:19;101534.00;;;17.50
12918;BMP180;6526;54.312;13.092;2024-02-21T11:12:45;101530.00;;;17.60
12918;BMP180;6526;54.312;13.092;2024-02-21T11:15:12;101529.00;;;17.60
12918;BMP180;6526;54.312;13.092;2024-02-21T11:17:38;101529.00;;;17.60
12918;BMP180;6526;54.312;13.092;2024-02-21T11:20:33;101523.00;;;17.60
12918;BMP180;6526;54.312;13.092;2024-02-21T11:23:02;101517.00;;;17.50
12918;BMP180;6526;54.312;13.092;2024-02-21T11:25:29;101515.00;;;17.50
12918;BMP180;6526;54.312;13.092;2024-02-21T11:28:08;101516.00;;;17.70
12918;BMP180;6526;54.312;13.092;2024-02-21T11:30:37;101521.00;;;17.80
12918;BMP180;6526;54.312;13.092;2024-02-21T11:33:07;101515.00;;;18.00
12918;BMP180;6526;54.312;13.092;2024-02-21T11:35:34;101518.00;;;18.00
12918;BMP180;6526;54.312;13.092;2024-02-21T11:38:10;101511.00;;;17.90
12918;BMP180;6526;54.312;13.092;2024-02-21T11:40:39;101502.00;;;18.00
12918;BMP180;6526;54.312;13.092;2024-02-21T11:43:06;101502.00;;;18.10
12918;BMP180;6526;54.312;13.092;2024-02-21T11:45:32;101509.00;;;18.20
12918;BMP180;6526;54.312;13.092;2024-02-21T11:47:59;101490.00;;;18.40
12918;BMP180;6526;54.312;13.092;2024-02-21T11:50:26;101496.00;;;18.60
12918;BMP180;6526;54.312;13.092;2024-02-21T11:52:55;101499.00;;;18.80
12918;BMP180;6526;54.312;13.092;2024-02-21T11:55:22;101478.00;;;18.80
12918;BMP180;6526;54.312;13.092;2024-02-21T11:57:48;101495.00;;;18.80
12918;BMP180;6526;54.312;13.092;2024-02-21T12:00:16;101497.00;;;18.90
12918;BMP180;6526;54.312;13.092;2024-02-21T12:02:43;101491.00;;;18.90
12918;BMP180;6526;54.312;13.092;2024-02-21T12:05:09;101480.00;;;19.10
12918;BMP180;6526;54.312;13.092;2024-02-21T12:07:38;101486.00;;;19.10
12918;BMP180;6526;54.312;13.092;2024-02-21T12:10:11;101481.00;;;19.00
12918;BMP180;6526;54.312;13.092;2024-02-21T12:12:38;101491.00;;;19.00
12918;BMP180;6526;54.312;13.092;2024-02-21T12:15:05;101472.00;;;19.00
12918;BMP180;6526;54.312;13.092;2024-02-21T12:17:35;101478.00;;;18.80
12918;BMP180;6526;54.312;13.092;2024-02-21T12:20:02;101471.00;;;18.80
12918;BMP180;6526;54.312;13.092;2024-02-21T12:22:35;101459.00;;;18.70
12918;BMP180;6526;54.312;13.092;2024-02-21T12:25:04;101461.00;;;18.60
12918;BMP180;6526;54.312;13.092;2024-02-21T12:27:30;101471.00;;;18.70
12918;BMP180;6526;54.312;13.092;2024-02-21T12:29:56;101457.00;;;18.80
12918;BMP180;6526;54.312;13.092;2024-02-21T12:32:22;101459.00;;;18.90
12918;BMP180;6526;54.312;13.092;2024-02-21T12:34:48;101459.00;;;18.90
12918;BMP180;6526;54.312;13.092;2024-02-21T12:37:14;101447.00;;;19.00
12918;BMP180;6526;54.312;13.092;2024-02-21T12:39:41;101448.00;;;18.80
12918;BMP180;6526;54.312;13.092;2024-02-21T12:42:07;101440.00;;;18.90
12918;BMP180;6526;54.312;13.092;2024-02-21T12:44:35;101454.00;;;18.80
12918;BMP180;6526;54.312;13.092;2024-02-21T12:47:01;101443.00;;;18.80
12918;BMP180;6526;54.312;13.092;2024-02-21T12:49:27;101448.00;;;18.80
12918;BMP180;6526;54.312;13.092;2024-02-21T12:51:55;101439.00;;;18.80
12918;BMP180;6526;54.312;13.092;2024-02-21T12:54:21;101433.00;;;18.90
12918;BMP180;6526;54.312;13.092;2024-02-21T12:56:48;101427.00;;;18.80
12918;BMP180;6526;54.312;13.092;2024-02-21T12:59:14;101426.00;;;18.80
12918;BMP180;6526;54.312;13.092;2024-02-21T13:01:40;101418.00;;;18.90
12918;BMP180;6526;54.312;13.092;2024-02-21T13:04:06;101417.00;;;18.90
12918;BMP180;6526;54.312;13.092;2024-02-21T13:06:32;101413.00;;;18.90
12918;BMP180;6526;54.312;13.092;2024-02-21T13:08:58;101410.00;;;18.90
12918;BMP180;6526;54.312;13.092;2024-02-21T13:11:25;101413.00;;;18.80
12918;BMP180;6526;54.312;13.092;2024-02-21T13:13:54;101417.00;;;18.80
12918;BMP180;6526;54.312;13.092;2024-02-21T13:16:20;101416.00;;;18.80
12918;BMP180;6526;54.312;13.092;2024-02-21T13:18:46;101412.00;;;18.70
12918;BMP180;6526;54.312;13.092;2024-02-21T13:21:13;101410.00;;;18.70
12918;BMP180;6526;54.312;13.092;2024-02-21T13:23:40;101407.00;;;18.60
12918;BMP180;6526;54.312;13.092;2024-02-21T13:26:06;101410.00;;;18.50
12918;BMP180;6526;54.312;13.092;2024-02-21T13:28:32;101411.00;;;18.60
12918;BMP180;6526;54.312;13.092;2024-02-21T13:30:58;101398.00;;;18.40
12918;BMP180;6526;54.312;13.092;2024-02-21T13:33:24;101404.00;;;18.30
12918;BMP180;6526;54.312;13.092;2024-02-21T13:35:50;101392.00;;;18.20
12918;BMP180;6526;54.312;13.092;2024-02-21T13:38:16;101404.00;;;18.20
12918;BMP180;6526;54.312;13.092;2024-02-21T13:40:43;101411.00;;;18.30
12918;BMP180;6526;54.312;13.092;2024-02-21T13:43:11;101397.00;;;18.30
12918;BMP180;6526;54.312;13.092;2024-02-21T13:45:37;101402.00;;;18.20
12918;BMP180;6526;54.312;13.092;2024-02-21T13:48:04;101398.00;;;18.10
12918;BMP180;6526;54.312;13.092;2024-02-21T13:50:32;101387.00;;;18.00
12918;BMP180;6526;54.312;13.092;2024-02-21T13:53:00;101399.00;;;17.80
12918;BMP180;6526;54.312;13.092;2024-02-21T13:55:27;101392.00;;;17.80
12918;BMP180;6526;54.312;13.092;2024-02-21T13:57:53;101398.00;;;17.90
12918;BMP180;6526;54.312;13.092;2024-02-21T14:00:19;101395.00;;;18.00